This is the latest recevied weather packets stored in our database for station/object N6GPM. If no packets are shown the sender has not sent any weather packets the latest 10 day(s).
| Time | Temp. | Humidity | Pressure | Rain* | Wind** | Luminosity | Snow |
|---|---|---|---|---|---|---|---|
| 1777872187 | 12.78° C | 76% | 1018 hPa | 0 mm | - | 0 W/m² | - |
| 1777871883 | 12.78° C | 76% | 1018.2 hPa | 0 mm | - | 0 W/m² | - |
| 1777871580 | 12.78° C | 76% | 1018.2 hPa | 0 mm | - | 0 W/m² | - |
| 1777871276 | 12.78° C | 76% | 1018.2 hPa | 0 mm | - | 0 W/m² | - |
| 1777870973 | 12.78° C | 76% | 1018 hPa | 0 mm | - | 0 W/m² | - |
| 1777870671 | 12.78° C | 76% | 1017.9 hPa | 0 mm | - | 0 W/m² | - |
| 1777870365 | 13.33° C | 76% | 1018 hPa | 0 mm | - | 0 W/m² | - |
| 1777870063 | 13.33° C | 75% | 1018.1 hPa | 0 mm | - | 0 W/m² | - |
| 1777869760 | 13.33° C | 76% | 1018 hPa | 0 mm | - | 0 W/m² | - |
| 1777869457 | 13.33° C | 76% | 1018.2 hPa | 0 mm | - | 0 W/m² | - |
| 1777869154 | 13.33° C | 75% | 1018.1 hPa | 0 mm | - | 0 W/m² | - |
| 1777868852 | 13.33° C | 76% | 1017.7 hPa | 0 mm | - | 0 W/m² | - |
| 1777868548 | 13.33° C | 76% | 1017.8 hPa | 0 mm | - | 0 W/m² | - |
| 1777868244 | 13.33° C | 76% | 1017.9 hPa | 0 mm | - | 0 W/m² | - |
| 1777867940 | 13.33° C | 76% | 1017.9 hPa | 0 mm | - | 0 W/m² | - |
| 1777867637 | 13.33° C | 76% | 1018 hPa | 0 mm | - | 0 W/m² | - |
| 1777867334 | 13.33° C | 76% | 1017.9 hPa | 0 mm | - | 0 W/m² | - |
| 1777867030 | 13.33° C | 76% | 1017.9 hPa | 0 mm | - | 0 W/m² | - |
| 1777866728 | 13.89° C | 75% | 1017.5 hPa | 0 mm | - | 0 W/m² | - |
| 1777865820 | 13.89° C | 75% | 1017.6 hPa | 0 mm | - | 0 W/m² | - |
| 1777864911 | 13.89° C | 74% | 1017.4 hPa | 0 mm | - | 0 W/m² | - |
| 1777864304 | 14.44° C | 73% | 1017.3 hPa | 0 mm | - | 0 W/m² | - |
| 1777844302 | 19.44° C | 66% | 1016.3 hPa | 0 mm | - | 393 W/m² | - |
| 1777842788 | 18.33° C | 71% | 1016.7 hPa | 0 mm | - | 740 W/m² | - |
| 1777842487 | 18.33° C | 71% | 1016.6 hPa | 0 mm | - | 368 W/m² | - |
* Rain latest hour (hover to see other rain measurements)
** Current wind speed in m/s (hover to see current wind gust speed)